sensor_id;sensor_type;location;lat;lon;timestamp;temperature;humidity
24164;DHT22;12319;49.204;8.116;2023-03-08T00:01:00;7.20;59.60
24164;DHT22;12319;49.204;8.116;2023-03-08T00:03:25;7.10;59.40
24164;DHT22;12319;49.204;8.116;2023-03-08T00:05:51;7.10;59.40
24164;DHT22;12319;49.204;8.116;2023-03-08T00:08:18;7.10;59.60
24164;DHT22;12319;49.204;8.116;2023-03-08T00:10:43;7.00;59.50
24164;DHT22;12319;49.204;8.116;2023-03-08T00:13:09;7.00;59.70
24164;DHT22;12319;49.204;8.116;2023-03-08T00:15:36;7.00;59.70
24164;DHT22;12319;49.204;8.116;2023-03-08T00:18:03;7.00;59.80
24164;DHT22;12319;49.204;8.116;2023-03-08T00:20:29;7.10;60.30
24164;DHT22;12319;49.204;8.116;2023-03-08T00:22:54;7.00;59.60
24164;DHT22;12319;49.204;8.116;2023-03-08T00:25:20;7.00;59.60
24164;DHT22;12319;49.204;8.116;2023-03-08T00:27:45;7.00;59.60
24164;DHT22;12319;49.204;8.116;2023-03-08T00:30:12;7.10;59.80
24164;DHT22;12319;49.204;8.116;2023-03-08T00:32:38;7.00;59.90
24164;DHT22;12319;49.204;8.116;2023-03-08T00:35:04;7.00;60.00
24164;DHT22;12319;49.204;8.116;2023-03-08T00:37:30;7.00;60.10
24164;DHT22;12319;49.204;8.116;2023-03-08T00:39:55;6.90;60.00
24164;DHT22;12319;49.204;8.116;2023-03-08T00:42:21;6.90;60.20
24164;DHT22;12319;49.204;8.116;2023-03-08T00:44:47;6.80;60.40
24164;DHT22;12319;49.204;8.116;2023-03-08T00:47:13;6.80;60.70
24164;DHT22;12319;49.204;8.116;2023-03-08T00:49:39;6.70;60.90
24164;DHT22;12319;49.204;8.116;2023-03-08T00:52:05;6.60;61.10
24164;DHT22;12319;49.204;8.116;2023-03-08T00:54:31;6.50;61.20
24164;DHT22;12319;49.204;8.116;2023-03-08T00:56:57;6.50;61.20
24164;DHT22;12319;49.204;8.116;2023-03-08T00:59:23;6.40;61.30
24164;DHT22;12319;49.204;8.116;2023-03-08T01:01:48;6.40;61.30
24164;DHT22;12319;49.204;8.116;2023-03-08T01:04:14;6.40;61.40
24164;DHT22;12319;49.204;8.116;2023-03-08T01:06:40;6.40;61.40
24164;DHT22;12319;49.204;8.116;2023-03-08T01:09:08;6.30;61.40
24164;DHT22;12319;49.204;8.116;2023-03-08T01:11:34;6.40;61.50
24164;DHT22;12319;49.204;8.116;2023-03-08T01:14:00;6.40;61.50
24164;DHT22;12319;49.204;8.116;2023-03-08T01:16:29;6.40;61.40
24164;DHT22;12319;49.204;8.116;2023-03-08T01:18:55;6.40;61.40
24164;DHT22;12319;49.204;8.116;2023-03-08T01:21:22;6.40;61.40
24164;DHT22;12319;49.204;8.116;2023-03-08T01:23:48;6.40;61.30
24164;DHT22;12319;49.204;8.116;2023-03-08T01:26:17;6.50;61.20
24164;DHT22;12319;49.204;8.116;2023-03-08T01:28:43;6.40;61.10
24164;DHT22;12319;49.204;8.116;2023-03-08T01:31:12;6.40;61.10
24164;DHT22;12319;49.204;8.116;2023-03-08T01:33:38;6.40;61.10
24164;DHT22;12319;49.204;8.116;2023-03-08T01:36:05;6.40;61.10
24164;DHT22;12319;49.204;8.116;2023-03-08T01:38:32;6.40;61.10
24164;DHT22;12319;49.204;8.116;2023-03-08T01:40:59;6.40;61.10
24164;DHT22;12319;49.204;8.116;2023-03-08T01:43:26;6.40;61.10
24164;DHT22;12319;49.204;8.116;2023-03-08T01:51:23;6.30;61.20
24164;DHT22;12319;49.204;8.116;2023-03-08T01:53:52;6.30;61.20
24164;DHT22;12319;49.204;8.116;2023-03-08T01:56:18;6.30;61.30
24164;DHT22;12319;49.204;8.116;2023-03-08T01:58:47;6.30;61.30
24164;DHT22;12319;49.204;8.116;2023-03-08T02:01:13;6.20;61.20
24164;DHT22;12319;49.204;8.116;2023-03-08T02:03:39;6.20;61.20
24164;DHT22;12319;49.204;8.116;2023-03-08T02:06:05;6.20;61.20
24164;DHT22;12319;49.204;8.116;2023-03-08T02:08:32;6.20;61.30
24164;DHT22;12319;49.204;8.116;2023-03-08T02:10:59;6.10;61.30
24164;DHT22;12319;49.204;8.116;2023-03-08T02:13:25;6.10;61.40
24164;DHT22;12319;49.204;8.116;2023-03-08T02:15:51;6.00;61.50
24164;DHT22;12319;49.204;8.116;2023-03-08T02:18:19;5.90;61.60
24164;DHT22;12319;49.204;8.116;2023-03-08T02:20:45;5.90;61.60
24164;DHT22;12319;49.204;8.116;2023-03-08T02:25:53;5.80;61.90
24164;DHT22;12319;49.204;8.116;2023-03-08T02:28:21;5.70;61.90
24164;DHT22;12319;49.204;8.116;2023-03-08T02:30:48;5.80;62.10
24164;DHT22;12319;49.204;8.116;2023-03-08T02:33:14;5.70;62.10
24164;DHT22;12319;49.204;8.116;2023-03-08T02:35:40;5.80;62.10
24164;DHT22;12319;49.204;8.116;2023-03-08T02:38:08;5.70;62.20
24164;DHT22;12319;49.204;8.116;2023-03-08T02:40:35;5.70;62.20
24164;DHT22;12319;49.204;8.116;2023-03-08T02:43:00;5.70;62.30
24164;DHT22;12319;49.204;8.116;2023-03-08T02:45:26;5.70;62.40
24164;DHT22;12319;49.204;8.116;2023-03-08T02:47:52;5.70;62.40
24164;DHT22;12319;49.204;8.116;2023-03-08T02:50:17;5.70;62.40
24164;DHT22;12319;49.204;8.116;2023-03-08T02:52:43;5.70;62.60
24164;DHT22;12319;49.204;8.116;2023-03-08T02:55:09;5.60;62.60
24164;DHT22;12319;49.204;8.116;2023-03-08T02:57:34;5.60;62.60
24164;DHT22;12319;49.204;8.116;2023-03-08T03:00:00;5.60;62.60
24164;DHT22;12319;49.204;8.116;2023-03-08T03:02:26;5.60;62.70
24164;DHT22;12319;49.204;8.116;2023-03-08T03:04:52;5.60;62.70
24164;DHT22;12319;49.204;8.116;2023-03-08T03:07:18;5.60;62.70
24164;DHT22;12319;49.204;8.116;2023-03-08T03:09:43;5.60;62.70
24164;DHT22;12319;49.204;8.116;2023-03-08T03:12:09;5.60;62.70
24164;DHT22;12319;49.204;8.116;2023-03-08T03:14:34;5.70;62.80
24164;DHT22;12319;49.204;8.116;2023-03-08T03:17:00;5.60;62.70
24164;DHT22;12319;49.204;8.116;2023-03-08T03:19:26;5.60;62.70
24164;DHT22;12319;49.204;8.116;2023-03-08T03:21:51;5.60;62.70
24164;DHT22;12319;49.204;8.116;2023-03-08T03:24:17;5.60;62.90
24164;DHT22;12319;49.204;8.116;2023-03-08T03:26:42;5.50;62.70
24164;DHT22;12319;49.204;8.116;2023-03-08T03:29:08;5.50;63.10
24164;DHT22;12319;49.204;8.116;2023-03-08T03:31:34;5.40;63.00
24164;DHT22;12319;49.204;8.116;2023-03-08T03:33:59;5.40;64.10
24164;DHT22;12319;49.204;8.116;2023-03-08T03:36:25;5.40;63.50
24164;DHT22;12319;49.204;8.116;2023-03-08T03:38:51;5.40;63.50
24164;DHT22;12319;49.204;8.116;2023-03-08T03:41:19;5.40;63.50
24164;DHT22;12319;49.204;8.116;2023-03-08T03:43:45;5.40;63.80
24164;DHT22;12319;49.204;8.116;2023-03-08T03:46:13;5.40;63.80
24164;DHT22;12319;49.204;8.116;2023-03-08T03:48:39;5.40;63.80
24164;DHT22;12319;49.204;8.116;2023-03-08T03:51:17;5.40;63.70
24164;DHT22;12319;49.204;8.116;2023-03-08T03:53:42;5.40;63.80
24164;DHT22;12319;49.204;8.116;2023-03-08T03:56:15;5.40;63.70
24164;DHT22;12319;49.204;8.116;2023-03-08T03:58:41;5.40;63.70
24164;DHT22;12319;49.204;8.116;2023-03-08T04:03:37;5.40;63.50
24164;DHT22;12319;49.204;8.116;2023-03-08T04:06:14;5.00;63.20
24164;DHT22;12319;49.204;8.116;2023-03-08T04:08:41;5.40;63.50
24164;DHT22;12319;49.204;8.116;2023-03-08T04:11:09;5.50;63.60
24164;DHT22;12319;49.204;8.116;2023-03-08T04:13:36;5.50;63.60
24164;DHT22;12319;49.204;8.116;2023-03-08T04:16:29;5.50;63.60
24164;DHT22;12319;49.204;8.116;2023-03-08T04:18:56;5.50;63.70
24164;DHT22;12319;49.204;8.116;2023-03-08T04:21:22;5.50;63.60
24164;DHT22;12319;49.204;8.116;2023-03-08T04:23:48;5.50;63.70
24164;DHT22;12319;49.204;8.116;2023-03-08T04:26:15;5.50;63.60
24164;DHT22;12319;49.204;8.116;2023-03-08T04:28:41;5.50;63.80
24164;DHT22;12319;49.204;8.116;2023-03-08T04:31:21;5.60;64.00
24164;DHT22;12319;49.204;8.116;2023-03-08T04:33:47;5.50;63.90
24164;DHT22;12319;49.204;8.116;2023-03-08T04:36:13;5.50;64.10
24164;DHT22;12319;49.204;8.116;2023-03-08T04:38:40;5.50;64.60
24164;DHT22;12319;49.204;8.116;2023-03-08T04:41:06;5.50;64.10
24164;DHT22;12319;49.204;8.116;2023-03-08T04:46:09;5.50;64.40
24164;DHT22;12319;49.204;8.116;2023-03-08T04:48:35;5.50;64.30
24164;DHT22;12319;49.204;8.116;2023-03-08T04:51:03;5.50;64.40
24164;DHT22;12319;49.204;8.116;2023-03-08T04:53:29;5.50;64.60
24164;DHT22;12319;49.204;8.116;2023-03-08T04:55:56;5.60;64.90
24164;DHT22;12319;49.204;8.116;2023-03-08T04:58:23;5.60;64.90
24164;DHT22;12319;49.204;8.116;2023-03-08T05:00:49;5.50;64.60
24164;DHT22;12319;49.204;8.116;2023-03-08T05:03:14;5.60;64.80
24164;DHT22;12319;49.204;8.116;2023-03-08T05:05:48;5.60;64.80
24164;DHT22;12319;49.204;8.116;2023-03-08T05:08:15;5.60;65.00
24164;DHT22;12319;49.204;8.116;2023-03-08T05:10:52;5.60;64.90
24164;DHT22;12319;49.204;8.116;2023-03-08T05:13:19;5.60;65.10
24164;DHT22;12319;49.204;8.116;2023-03-08T05:15:45;5.60;64.90
24164;DHT22;12319;49.204;8.116;2023-03-08T05:18:10;5.60;65.00
24164;DHT22;12319;49.204;8.116;2023-03-08T05:20:36;5.70;65.10
24164;DHT22;12319;49.204;8.116;2023-03-08T05:23:02;5.70;65.20
24164;DHT22;12319;49.204;8.116;2023-03-08T05:25:28;5.60;65.00
24164;DHT22;12319;49.204;8.116;2023-03-08T05:27:55;6.00;65.40
24164;DHT22;12319;49.204;8.116;2023-03-08T05:30:20;5.60;65.10
24164;DHT22;12319;49.204;8.116;2023-03-08T05:32:46;5.60;65.20
24164;DHT22;12319;49.204;8.116;2023-03-08T05:35:11;5.60;65.40
24164;DHT22;12319;49.204;8.116;2023-03-08T05:37:37;5.60;65.40
24164;DHT22;12319;49.204;8.116;2023-03-08T05:40:03;5.60;65.40
24164;DHT22;12319;49.204;8.116;2023-03-08T05:42:31;5.60;65.50
24164;DHT22;12319;49.204;8.116;2023-03-08T05:44:56;5.50;65.40
24164;DHT22;12319;49.204;8.116;2023-03-08T05:47:22;5.50;65.40
24164;DHT22;12319;49.204;8.116;2023-03-08T05:49:48;5.50;65.40
24164;DHT22;12319;49.204;8.116;2023-03-08T05:52:13;5.50;65.30
24164;DHT22;12319;49.204;8.116;2023-03-08T05:54:39;5.60;65.50
24164;DHT22;12319;49.204;8.116;2023-03-08T05:57:04;5.60;65.50
24164;DHT22;12319;49.204;8.116;2023-03-08T05:59:30;5.60;65.40
24164;DHT22;12319;49.204;8.116;2023-03-08T06:01:56;5.60;65.60
24164;DHT22;12319;49.204;8.116;2023-03-08T06:04:22;5.50;65.50
24164;DHT22;12319;49.204;8.116;2023-03-08T06:06:47;5.60;65.80
24164;DHT22;12319;49.204;8.116;2023-03-08T06:09:13;5.60;65.80
24164;DHT22;12319;49.204;8.116;2023-03-08T06:11:38;5.60;65.80
24164;DHT22;12319;49.204;8.116;2023-03-08T06:14:04;5.60;65.80
24164;DHT22;12319;49.204;8.116;2023-03-08T06:16:29;5.60;65.50
24164;DHT22;12319;49.204;8.116;2023-03-08T06:18:55;5.60;66.00
24164;DHT22;12319;49.204;8.116;2023-03-08T06:21:20;5.60;66.00
24164;DHT22;12319;49.204;8.116;2023-03-08T06:23:47;5.60;66.20
24164;DHT22;12319;49.204;8.116;2023-03-08T06:26:14;5.60;66.10
24164;DHT22;12319;49.204;8.116;2023-03-08T06:28:40;5.60;66.10
24164;DHT22;12319;49.204;8.116;2023-03-08T06:31:07;5.60;66.30
24164;DHT22;12319;49.204;8.116;2023-03-08T06:33:33;5.60;66.50
24164;DHT22;12319;49.204;8.116;2023-03-08T06:38:29;5.70;66.90
24164;DHT22;12319;49.204;8.116;2023-03-08T06:40:55;5.70;66.80
24164;DHT22;12319;49.204;8.116;2023-03-08T06:43:21;5.70;66.80
24164;DHT22;12319;49.204;8.116;2023-03-08T06:45:46;5.80;66.80
24164;DHT22;12319;49.204;8.116;2023-03-08T06:48:12;5.80;67.00
24164;DHT22;12319;49.204;8.116;2023-03-08T06:50:38;5.80;67.00
24164;DHT22;12319;49.204;8.116;2023-03-08T06:53:05;5.80;67.30
24164;DHT22;12319;49.204;8.116;2023-03-08T06:55:30;5.80;67.80
24164;DHT22;12319;49.204;8.116;2023-03-08T06:57:56;5.80;68.10
24164;DHT22;12319;49.204;8.116;2023-03-08T07:00:22;5.70;68.80
24164;DHT22;12319;49.204;8.116;2023-03-08T07:02:47;5.70;68.80
24164;DHT22;12319;49.204;8.116;2023-03-08T07:05:14;5.60;69.00
24164;DHT22;12319;49.204;8.116;2023-03-08T07:07:41;5.70;70.30
24164;DHT22;12319;49.204;8.116;2023-03-08T07:10:07;5.60;69.90
24164;DHT22;12319;49.204;8.116;2023-03-08T07:12:35;5.60;70.20
24164;DHT22;12319;49.204;8.116;2023-03-08T07:15:07;5.50;70.80
24164;DHT22;12319;49.204;8.116;2023-03-08T07:17:33;5.50;71.20
24164;DHT22;12319;49.204;8.116;2023-03-08T07:20:00;5.50;72.10
24164;DHT22;12319;49.204;8.116;2023-03-08T07:22:25;5.40;72.40
24164;DHT22;12319;49.204;8.116;2023-03-08T07:24:51;5.40;73.20
24164;DHT22;12319;49.204;8.116;2023-03-08T07:27:16;5.30;73.30
24164;DHT22;12319;49.204;8.116;2023-03-08T07:29:42;5.30;74.40
24164;DHT22;12319;49.204;8.116;2023-03-08T07:32:08;5.20;74.20
24164;DHT22;12319;49.204;8.116;2023-03-08T07:34:33;5.20;74.60
24164;DHT22;12319;49.204;8.116;2023-03-08T07:36:59;5.20;74.80
24164;DHT22;12319;49.204;8.116;2023-03-08T07:39:24;5.10;74.70
24164;DHT22;12319;49.204;8.116;2023-03-08T07:41:50;5.10;75.00
24164;DHT22;12319;49.204;8.116;2023-03-08T07:44:15;5.10;75.10
24164;DHT22;12319;49.204;8.116;2023-03-08T07:46:41;5.10;75.30
24164;DHT22;12319;49.204;8.116;2023-03-08T07:49:06;5.10;75.80
24164;DHT22;12319;49.204;8.116;2023-03-08T07:51:35;5.00;76.40
24164;DHT22;12319;49.204;8.116;2023-03-08T07:54:01;5.00;77.20
24164;DHT22;12319;49.204;8.116;2023-03-08T07:56:26;4.90;77.00
24164;DHT22;12319;49.204;8.116;2023-03-08T07:58:55;4.90;77.30
24164;DHT22;12319;49.204;8.116;2023-03-08T08:01:20;4.90;77.00
24164;DHT22;12319;49.204;8.116;2023-03-08T08:03:46;4.90;76.90
24164;DHT22;12319;49.204;8.116;2023-03-08T08:06:11;4.90;76.90
24164;DHT22;12319;49.204;8.116;2023-03-08T08:08:37;4.90;76.60
24164;DHT22;12319;49.204;8.116;2023-03-08T08:11:13;5.00;77.10
24164;DHT22;12319;49.204;8.116;2023-03-08T08:13:39;5.00;76.80
24164;DHT22;12319;49.204;8.116;2023-03-08T08:16:05;5.00;76.90
24164;DHT22;12319;49.204;8.116;2023-03-08T08:18:32;5.00;76.90
24164;DHT22;12319;49.204;8.116;2023-03-08T08:21:03;5.10;77.10
24164;DHT22;12319;49.204;8.116;2023-03-08T08:23:29;5.10;77.10
24164;DHT22;12319;49.204;8.116;2023-03-08T08:25:55;5.20;77.40
24164;DHT22;12319;49.204;8.116;2023-03-08T08:28:21;5.20;77.20
24164;DHT22;12319;49.204;8.116;2023-03-08T08:31:04;5.20;78.30
24164;DHT22;12319;49.204;8.116;2023-03-08T08:33:31;5.20;79.00
24164;DHT22;12319;49.204;8.116;2023-03-08T08:35:57;5.10;78.80
24164;DHT22;12319;49.204;8.116;2023-03-08T08:38:23;5.10;79.00
24164;DHT22;12319;49.204;8.116;2023-03-08T08:40:49;5.10;79.10
24164;DHT22;12319;49.204;8.116;2023-03-08T08:43:15;5.10;79.10
24164;DHT22;12319;49.204;8.116;2023-03-08T08:45:46;5.10;78.90
24164;DHT22;12319;49.204;8.116;2023-03-08T08:48:13;5.20;79.40
24164;DHT22;12319;49.204;8.116;2023-03-08T08:50:40;5.20;79.60
24164;DHT22;12319;49.204;8.116;2023-03-08T08:53:06;5.30;79.60
24164;DHT22;12319;49.204;8.116;2023-03-08T08:55:31;5.20;79.60
24164;DHT22;12319;49.204;8.116;2023-03-08T08:57:57;5.20;79.50
24164;DHT22;12319;49.204;8.116;2023-03-08T09:00:22;5.20;79.50
24164;DHT22;12319;49.204;8.116;2023-03-08T09:02:48;5.30;79.80
24164;DHT22;12319;49.204;8.116;2023-03-08T09:05:14;5.30;80.00
24164;DHT22;12319;49.204;8.116;2023-03-08T09:07:39;5.30;80.00
24164;DHT22;12319;49.204;8.116;2023-03-08T09:10:06;5.40;79.70
24164;DHT22;12319;49.204;8.116;2023-03-08T09:12:32;5.40;79.70
24164;DHT22;12319;49.204;8.116;2023-03-08T09:14:57;5.30;79.80
24164;DHT22;12319;49.204;8.116;2023-03-08T09:17:23;5.30;79.90
24164;DHT22;12319;49.204;8.116;2023-03-08T09:19:49;5.40;80.10
24164;DHT22;12319;49.204;8.116;2023-03-08T09:22:14;5.40;80.00
24164;DHT22;12319;49.204;8.116;2023-03-08T09:24:40;5.40;80.20
24164;DHT22;12319;49.204;8.116;2023-03-08T09:27:06;5.30;80.00
24164;DHT22;12319;49.204;8.116;2023-03-08T09:29:31;5.30;80.20
24164;DHT22;12319;49.204;8.116;2023-03-08T09:31:58;5.30;80.30
24164;DHT22;12319;49.204;8.116;2023-03-08T09:34:24;5.20;80.40
24164;DHT22;12319;49.204;8.116;2023-03-08T09:36:50;5.20;80.50
24164;DHT22;12319;49.204;8.116;2023-03-08T09:39:15;5.20;80.90
24164;DHT22;12319;49.204;8.116;2023-03-08T09:41:46;5.30;81.00
24164;DHT22;12319;49.204;8.116;2023-03-08T09:47:10;5.30;81.50
24164;DHT22;12319;49.204;8.116;2023-03-08T09:49:38;5.40;81.40
24164;DHT22;12319;49.204;8.116;2023-03-08T09:55:31;5.40;81.80
24164;DHT22;12319;49.204;8.116;2023-03-08T09:58:01;5.40;81.70
24164;DHT22;12319;49.204;8.116;2023-03-08T10:00:35;5.40;82.00
24164;DHT22;12319;49.204;8.116;2023-03-08T10:03:30;5.50;82.30
24164;DHT22;12319;49.204;8.116;2023-03-08T10:06:10;5.60;82.50
24164;DHT22;12319;49.204;8.116;2023-03-08T10:08:49;5.60;82.30
24164;DHT22;12319;49.204;8.116;2023-03-08T10:11:42;5.70;82.80
24164;DHT22;12319;49.204;8.116;2023-03-08T10:14:18;5.70;82.80
24164;DHT22;12319;49.204;8.116;2023-03-08T10:16:48;5.80;82.90
24164;DHT22;12319;49.204;8.116;2023-03-08T10:19:22;5.80;83.50
24164;DHT22;12319;49.204;8.116;2023-03-08T10:21:52;5.90;83.80
24164;DHT22;12319;49.204;8.116;2023-03-08T10:24:28;5.90;84.30
24164;DHT22;12319;49.204;8.116;2023-03-08T10:27:05;6.00;84.00
24164;DHT22;12319;49.204;8.116;2023-03-08T10:29:31;6.00;85.20
24164;DHT22;12319;49.204;8.116;2023-03-08T10:31:56;6.00;86.20
24164;DHT22;12319;49.204;8.116;2023-03-08T10:34:29;6.00;87.20
24164;DHT22;12319;49.204;8.116;2023-03-08T10:37:00;6.00;87.00
24164;DHT22;12319;49.204;8.116;2023-03-08T10:39:26;6.00;87.40
24164;DHT22;12319;49.204;8.116;2023-03-08T10:41:55;6.00;88.30
24164;DHT22;12319;49.204;8.116;2023-03-08T10:44:32;6.00;88.80
24164;DHT22;12319;49.204;8.116;2023-03-08T10:47:02;6.00;88.40
24164;DHT22;12319;49.204;8.116;2023-03-08T10:49:28;6.10;89.20
24164;DHT22;12319;49.204;8.116;2023-03-08T10:51:59;6.20;89.80
24164;DHT22;12319;49.204;8.116;2023-03-08T10:54:26;6.20;88.90
24164;DHT22;12319;49.204;8.116;2023-03-08T10:56:55;6.30;89.90
24164;DHT22;12319;49.204;8.116;2023-03-08T10:59:26;6.30;90.50
24164;DHT22;12319;49.204;8.116;2023-03-08T11:01:59;6.40;90.40
24164;DHT22;12319;49.204;8.116;2023-03-08T11:04:27;6.50;90.30
24164;DHT22;12319;49.204;8.116;2023-03-08T11:06:53;6.60;90.30
24164;DHT22;12319;49.204;8.116;2023-03-08T11:09:27;6.70;90.90
24164;DHT22;12319;49.204;8.116;2023-03-08T11:11:54;6.80;90.30
24164;DHT22;12319;49.204;8.116;2023-03-08T11:14:20;6.90;90.70
24164;DHT22;12319;49.204;8.116;2023-03-08T11:17:00;7.00;90.40
24164;DHT22;12319;49.204;8.116;2023-03-08T11:22:17;7.20;90.90
24164;DHT22;12319;49.204;8.116;2023-03-08T11:30:39;7.40;91.50
24164;DHT22;12319;49.204;8.116;2023-03-08T11:33:28;7.50;91.80
24164;DHT22;12319;49.204;8.116;2023-03-08T11:38:41;7.70;91.70
24164;DHT22;12319;49.204;8.116;2023-03-08T11:41:24;7.80;92.00
24164;DHT22;12319;49.204;8.116;2023-03-08T11:56:58;9.00;92.40
24164;DHT22;12319;49.204;8.116;2023-03-08T11:59:50;9.20;92.60
24164;DHT22;12319;49.204;8.116;2023-03-08T12:02:29;9.40;92.40
24164;DHT22;12319;49.204;8.116;2023-03-08T12:05:06;9.60;92.40
24164;DHT22;12319;49.204;8.116;2023-03-08T12:07:50;9.80;92.40
24164;DHT22;12319;49.204;8.116;2023-03-08T12:10:23;10.00;91.90
24164;DHT22;12319;49.204;8.116;2023-03-08T12:13:14;10.10;91.80
24164;DHT22;12319;49.204;8.116;2023-03-08T12:15:59;10.40;91.80
24164;DHT22;12319;49.204;8.116;2023-03-08T12:18:42;10.50;91.90
24164;DHT22;12319;49.204;8.116;2023-03-08T12:24:13;10.90;91.60
24164;DHT22;12319;49.204;8.116;2023-03-08T12:29:30;11.20;91.40
24164;DHT22;12319;49.204;8.116;2023-03-08T12:31:57;11.40;91.60
24164;DHT22;12319;49.204;8.116;2023-03-08T12:34:35;11.70;91.50
24164;DHT22;12319;49.204;8.116;2023-03-08T12:37:00;11.90;91.60
24164;DHT22;12319;49.204;8.116;2023-03-08T12:39:35;12.20;91.30
24164;DHT22;12319;49.204;8.116;2023-03-08T12:44:37;12.40;90.90
24164;DHT22;12319;49.204;8.116;2023-03-08T12:49:43;12.60;90.80
24164;DHT22;12319;49.204;8.116;2023-03-08T12:55:05;12.70;90.30
24164;DHT22;12319;49.204;8.116;2023-03-08T12:57:49;12.80;90.40
24164;DHT22;12319;49.204;8.116;2023-03-08T13:02:44;13.10;90.20
24164;DHT22;12319;49.204;8.116;2023-03-08T13:05:19;13.10;90.00
24164;DHT22;12319;49.204;8.116;2023-03-08T13:10:58;13.30;89.90
24164;DHT22;12319;49.204;8.116;2023-03-08T13:18:42;13.10;89.80
24164;DHT22;12319;49.204;8.116;2023-03-08T13:23:49;13.00;90.20
24164;DHT22;12319;49.204;8.116;2023-03-08T13:29:30;12.90;90.30
24164;DHT22;12319;49.204;8.116;2023-03-08T13:31:56;12.70;90.60
24164;DHT22;12319;49.204;8.116;2023-03-08T13:34:28;12.60;90.90
24164;DHT22;12319;49.204;8.116;2023-03-08T13:36:53;12.40;91.20
24164;DHT22;12319;49.204;8.116;2023-03-08T13:39:25;12.20;91.20
24164;DHT22;12319;49.204;8.116;2023-03-08T13:41:52;12.10;91.40
24164;DHT22;12319;49.204;8.116;2023-03-08T13:44:25;12.00;91.70
24164;DHT22;12319;49.204;8.116;2023-03-08T13:47:00;11.90;91.90
24164;DHT22;12319;49.204;8.116;2023-03-08T13:49:33;11.80;92.10
24164;DHT22;12319;49.204;8.116;2023-03-08T13:52:02;11.80;92.20
24164;DHT22;12319;49.204;8.116;2023-03-08T13:54:31;11.80;92.30
24164;DHT22;12319;49.204;8.116;2023-03-08T13:57:02;11.80;92.10
24164;DHT22;12319;49.204;8.116;2023-03-08T13:59:30;11.80;92.60
24164;DHT22;12319;49.204;8.116;2023-03-08T14:01:56;11.80;92.80
24164;DHT22;12319;49.204;8.116;2023-03-08T14:04:27;11.70;92.70
24164;DHT22;12319;49.204;8.116;2023-03-08T14:06:58;11.70;93.10
24164;DHT22;12319;49.204;8.116;2023-03-08T14:09:25;11.80;92.80
24164;DHT22;12319;49.204;8.116;2023-03-08T14:12:05;11.80;93.20
24164;DHT22;12319;49.204;8.116;2023-03-08T14:14:36;11.80;93.40
24164;DHT22;12319;49.204;8.116;2023-03-08T14:17:03;11.90;93.20
24164;DHT22;12319;49.204;8.116;2023-03-08T14:19:33;11.90;93.40
24164;DHT22;12319;49.204;8.116;2023-03-08T14:22:02;12.00;93.10
24164;DHT22;12319;49.204;8.116;2023-03-08T14:24:33;12.00;93.40
24164;DHT22;12319;49.204;8.116;2023-03-08T14:27:01;12.10;93.30
24164;DHT22;12319;49.204;8.116;2023-03-08T14:29:32;12.20;93.30
24164;DHT22;12319;49.204;8.116;2023-03-08T14:34:41;12.50;93.20
24164;DHT22;12319;49.204;8.116;2023-03-08T14:39:40;12.40;92.80
24164;DHT22;12319;49.204;8.116;2023-03-08T14:45:02;12.50;92.60
24164;DHT22;12319;49.204;8.116;2023-03-08T14:47:31;12.60;92.80
24164;DHT22;12319;49.204;8.116;2023-03-08T14:52:30;12.70;92.20
24164;DHT22;12319;49.204;8.116;2023-03-08T14:54:56;12.70;92.20
24164;DHT22;12319;49.204;8.116;2023-03-08T14:57:26;12.80;91.90
24164;DHT22;12319;49.204;8.116;2023-03-08T14:59:53;12.90;92.00
24164;DHT22;12319;49.204;8.116;2023-03-08T15:02:20;13.00;91.90
24164;DHT22;12319;49.204;8.116;2023-03-08T15:04:46;13.00;92.00
24164;DHT22;12319;49.204;8.116;2023-03-08T15:07:20;13.10;91.80
24164;DHT22;12319;49.204;8.116;2023-03-08T15:09:48;13.10;91.90
24164;DHT22;12319;49.204;8.116;2023-03-08T15:12:14;13.20;91.90
24164;DHT22;12319;49.204;8.116;2023-03-08T15:14:39;13.20;91.80
24164;DHT22;12319;49.204;8.116;2023-03-08T15:17:05;13.20;91.60
24164;DHT22;12319;49.204;8.116;2023-03-08T15:19:31;13.30;91.60
24164;DHT22;12319;49.204;8.116;2023-03-08T15:21:56;13.30;91.40
24164;DHT22;12319;49.204;8.116;2023-03-08T15:24:22;13.30;91.30
24164;DHT22;12319;49.204;8.116;2023-03-08T15:26:48;13.30;91.30
24164;DHT22;12319;49.204;8.116;2023-03-08T15:29:26;13.30;91.40
24164;DHT22;12319;49.204;8.116;2023-03-08T15:31:53;13.30;91.30
24164;DHT22;12319;49.204;8.116;2023-03-08T15:34:19;13.30;91.20
24164;DHT22;12319;49.204;8.116;2023-03-08T15:36:46;13.20;91.50
24164;DHT22;12319;49.204;8.116;2023-03-08T15:39:12;13.20;91.40
24164;DHT22;12319;49.204;8.116;2023-03-08T15:41:38;13.20;91.40
24164;DHT22;12319;49.204;8.116;2023-03-08T15:44:04;13.20;91.40
24164;DHT22;12319;49.204;8.116;2023-03-08T15:46:30;13.10;91.30
24164;DHT22;12319;49.204;8.116;2023-03-08T15:48:56;13.10;91.40
24164;DHT22;12319;49.204;8.116;2023-03-08T15:51:25;13.10;91.20
24164;DHT22;12319;49.204;8.116;2023-03-08T15:53:53;13.00;91.30
24164;DHT22;12319;49.204;8.116;2023-03-08T15:56:18;13.00;91.70
24164;DHT22;12319;49.204;8.116;2023-03-08T15:58:44;13.00;91.60
24164;DHT22;12319;49.204;8.116;2023-03-08T16:01:09;12.90;91.80
24164;DHT22;12319;49.204;8.116;2023-03-08T16:03:36;12.90;91.50
24164;DHT22;12319;49.204;8.116;2023-03-08T16:06:06;12.80;91.30
24164;DHT22;12319;49.204;8.116;2023-03-08T16:08:32;12.80;91.60
24164;DHT22;12319;49.204;8.116;2023-03-08T16:11:00;12.80;91.60
24164;DHT22;12319;49.204;8.116;2023-03-08T16:13:28;12.80;91.60
24164;DHT22;12319;49.204;8.116;2023-03-08T16:15:57;12.70;91.80
24164;DHT22;12319;49.204;8.116;2023-03-08T16:18:23;12.70;91.90
24164;DHT22;12319;49.204;8.116;2023-03-08T16:20:49;12.70;92.20
24164;DHT22;12319;49.204;8.116;2023-03-08T16:23:14;12.60;92.60
24164;DHT22;12319;49.204;8.116;2023-03-08T16:25:40;12.60;92.90
24164;DHT22;12319;49.204;8.116;2023-03-08T16:28:08;12.50;92.90
24164;DHT22;12319;49.204;8.116;2023-03-08T16:30:33;12.40;93.10
24164;DHT22;12319;49.204;8.116;2023-03-08T16:32:59;12.40;93.30
24164;DHT22;12319;49.204;8.116;2023-03-08T16:35:25;12.30;93.30
24164;DHT22;12319;49.204;8.116;2023-03-08T16:37:52;12.30;93.30
24164;DHT22;12319;49.204;8.116;2023-03-08T16:40:18;12.30;93.30
24164;DHT22;12319;49.204;8.116;2023-03-08T16:42:43;12.20;93.40
24164;DHT22;12319;49.204;8.116;2023-03-08T16:45:09;12.30;93.60
24164;DHT22;12319;49.204;8.116;2023-03-08T16:47:37;12.20;93.60
24164;DHT22;12319;49.204;8.116;2023-03-08T16:50:03;12.20;93.60
24164;DHT22;12319;49.204;8.116;2023-03-08T16:52:28;12.20;93.60
24164;DHT22;12319;49.204;8.116;2023-03-08T16:54:55;12.20;93.80
24164;DHT22;12319;49.204;8.116;2023-03-08T16:57:21;12.20;94.10
24164;DHT22;12319;49.204;8.116;2023-03-08T16:59:47;12.10;94.00
24164;DHT22;12319;49.204;8.116;2023-03-08T17:02:16;12.10;93.90
24164;DHT22;12319;49.204;8.116;2023-03-08T17:04:42;12.00;94.00
24164;DHT22;12319;49.204;8.116;2023-03-08T17:07:09;12.00;94.00
24164;DHT22;12319;49.204;8.116;2023-03-08T17:09:35;12.00;94.20
24164;DHT22;12319;49.204;8.116;2023-03-08T17:12:01;11.90;94.20
24164;DHT22;12319;49.204;8.116;2023-03-08T17:14:27;11.90;94.30